Time;durP1;ratioP1;P1;durP2;ratioP2;P2;SDS_P1;SDS_P2;PMS_P1;PMS_P2;Temp;Humidity;BMP_temperature;BMP_pressure;BME280_temperature;BME280_humidity;BME280_pressure;Samples;Min_cycle;Max_cycle;Signal;HPM_P1;HPM_P2
2023/07/14 00:00:56;;;;;;;25.38;6.05;;;;;;;;;;6058633;23;20118;-56
2023/07/14 00:03:30;;;;;;;22.77;5.65;;;;;;;;;;6058311;23;20023;-57
2023/07/14 00:05:58;;;;;;;27.27;5.90;;;;;;;;;;6060324;23;20132;-57
2023/07/14 00:08:29;;;;;;;23.83;5.68;;;;;;;;;;6057806;23;20023;-58
2023/07/14 00:11:02;;;;;;;23.52;5.97;;;;;;;;;;6058315;23;20023;-58
2023/07/14 00:13:29;;;;;;;27.27;6.05;;;;;;;;;;6057958;23;20031;-56
2023/07/14 00:16:03;;;;;;;22.63;6.50;;;;;;;;;;6059882;23;20023;-56
2023/07/14 00:18:30;;;;;;;30.15;6.43;;;;;;;;;;6056848;23;20031;-57
2023/07/14 00:20:58;;;;;;;23.90;5.97;;;;;;;;;;6057808;23;20027;-56
2023/07/14 00:23:38;;;;;;;27.38;5.70;;;;;;;;;;6057948;23;20030;-57
2023/07/14 00:26:05;;;;;;;27.88;6.60;;;;;;;;;;6059451;23;20082;-56
2023/07/14 00:28:42;;;;;;;25.25;6.30;;;;;;;;;;6057898;23;20022;-58
2023/07/14 00:31:14;;;;;;;28.92;7.18;;;;;;;;;;6057391;23;20026;-57
2023/07/14 00:33:49;;;;;;;27.90;7.93;;;;;;;;;;6056872;23;20031;-58
2023/07/14 00:36:17;;;;;;;31.50;6.50;;;;;;;;;;6058789;23;20038;-58
2023/07/14 00:38:44;;;;;;;;;;;;;;;;;;6058954;23;20058;-61
2023/07/14 00:41:19;;;;;;;31.95;6.95;;;;;;;;;;6059656;23;19972;-57
2023/07/14 00:43:48;;;;;;;25.23;6.05;;;;;;;;;;6057619;23;20459;-58
2023/07/14 00:46:27;;;;;;;33.25;6.25;;;;;;;;;;6058439;23;20042;-57
2023/07/14 00:48:58;;;;;;;24.60;6.72;;;;;;;;;;6056283;23;20102;-57
2023/07/14 00:51:34;;;;;;;31.52;7.85;;;;;;;;;;6056665;23;20043;-58
2023/07/14 00:54:01;;;;;;;27.10;6.50;;;;;;;;;;6057566;23;20026;-57
2023/07/14 00:56:45;;;;;;;27.15;7.03;;;;;;;;;;6060019;23;20050;-58
2023/07/14 00:59:13;;;;;;;28.80;6.87;;;;;;;;;;6058113;23;20027;-57
2023/07/14 01:02:15;;;;;;;34.75;7.25;;;;;;;;;;6058475;23;20019;-57
2023/07/14 01:04:48;;;;;;;38.55;7.80;;;;;;;;;;6056331;23;20431;-57
2023/07/14 01:07:24;;;;;;;30.23;6.60;;;;;;;;;;6058401;23;20778;-53
2023/07/14 01:09:52;;;;;;;31.13;6.50;;;;;;;;;;6057536;23;20090;-57
2023/07/14 01:12:28;;;;;;;26.48;7.07;;;;;;;;;;6056924;23;20082;-55
2023/07/14 01:14:58;;;;;;;26.63;6.78;;;;;;;;;;6057476;23;20044;-56
2023/07/14 01:17:25;;;;;;;29.60;6.88;;;;;;;;;;6058646;23;20030;-55
2023/07/14 01:20:13;;;;;;;26.33;6.25;;;;;;;;;;6056675;23;20379;-55
2023/07/14 01:23:02;;;;;;;32.97;7.90;;;;;;;;;;6058444;23;20361;-56
2023/07/14 01:25:36;;;;;;;34.13;8.60;;;;;;;;;;6057165;23;20394;-55
2023/07/14 01:28:04;;;;;;;31.27;7.75;;;;;;;;;;6058352;23;20030;-56
2023/07/14 01:30:32;;;;;;;26.58;7.10;;;;;;;;;;6057937;23;20156;-56
2023/07/14 01:33:09;;;;;;;27.27;6.63;;;;;;;;;;6058054;23;20379;-56
2023/07/14 01:35:39;;;;;;;25.85;6.90;;;;;;;;;;6059254;23;20027;-57
2023/07/14 01:38:13;;;;;;;34.17;7.40;;;;;;;;;;6056751;23;20062;-58
2023/07/14 01:40:41;;;;;;;39.92;7.30;;;;;;;;;;6058038;23;20517;-58
2023/07/14 01:43:09;;;;;;;40.33;7.88;;;;;;;;;;6058341;23;20034;-57
2023/07/14 01:45:50;;;;;;;30.15;7.10;;;;;;;;;;6057077;23;20033;-58
2023/07/14 01:48:20;;;;;;;24.17;6.97;;;;;;;;;;6057760;23;20023;-57
2023/07/14 01:50:59;;;;;;;26.73;6.93;;;;;;;;;;6052450;23;20027;-57
2023/07/14 01:53:36;;;;;;;38.25;7.47;;;;;;;;;;6058147;23;20026;-57
2023/07/14 01:56:06;;;;;;;26.35;6.18;;;;;;;;;;6058460;23;20457;-56
2023/07/14 01:58:59;;;;;;;39.45;7.05;;;;;;;;;;6052817;23;20480;-56
2023/07/14 02:01:27;;;;;;;31.50;6.78;;;;;;;;;;6058536;23;20067;-56
2023/07/14 02:04:06;;;;;;;24.25;6.53;;;;;;;;;;6057606;23;20030;-51
2023/07/14 02:06:40;;;;;;;34.60;6.60;;;;;;;;;;6058023;23;20030;-61
2023/07/14 02:09:08;;;;;;;30.50;5.80;;;;;;;;;;6057085;23;20027;-61
2023/07/14 02:11:43;;;;;;;24.25;6.07;;;;;;;;;;6056380;23;20064;-60
2023/07/14 02:14:16;;;;;;;32.80;7.15;;;;;;;;;;6055594;23;20516;-61
2023/07/14 02:16:50;;;;;;;31.02;6.05;;;;;;;;;;6055001;23;20078;-61
2023/07/14 02:19:20;;;;;;;22.75;5.93;;;;;;;;;;6058942;23;20030;-61
2023/07/14 02:22:08;;;;;;;28.10;6.38;;;;;;;;;;6060039;23;20019;-48
2023/07/14 02:24:42;;;;;;;20.63;5.80;;;;;;;;;;6060065;23;20026;-47
2023/07/14 02:27:16;;;;;;;24.90;6.40;;;;;;;;;;6057352;23;20102;-48
2023/07/14 02:29:43;;;;;;;22.63;5.70;;;;;;;;;;6058573;23;20031;-49
2023/07/14 02:32:10;;;;;;;19.70;5.85;;;;;;;;;;6059012;23;20058;-58
2023/07/14 02:34:48;;;;;;;22.70;6.28;;;;;;;;;;6059222;23;20525;-58
2023/07/14 02:37:39;;;;;;;22.38;6.03;;;;;;;;;;6059223;23;20498;-58
2023/07/14 02:40:13;;;;;;;26.60;5.43;;;;;;;;;;6058468;23;20026;-57
2023/07/14 02:42:40;;;;;;;26.55;6.28;;;;;;;;;;6060186;23;20055;-57
2023/07/14 02:45:16;;;;;;;24.17;6.88;;;;;;;;;;6057685;23;20038;-58
2023/07/14 02:47:44;;;;;;;17.42;5.30;;;;;;;;;;6058440;23;20023;-57
2023/07/14 02:50:11;;;;;;;24.17;5.65;;;;;;;;;;6059812;23;20031;-62
2023/07/14 02:52:45;;;;;;;29.83;6.28;;;;;;;;;;6059446;23;20042;-62
2023/07/14 02:55:13;;;;;;;34.65;6.10;;;;;;;;;;6059138;23;20046;-62
2023/07/14 02:57:47;;;;;;;21.48;5.43;;;;;;;;;;6059914;23;20478;-62
2023/07/14 03:00:15;;;;;;;18.80;5.65;;;;;;;;;;6059874;23;20042;-58
2023/07/14 03:02:42;;;;;;;29.13;6.28;;;;;;;;;;6058972;23;20031;-62
2023/07/14 03:05:17;;;;;;;19.75;5.50;;;;;;;;;;6057552;23;20123;-58
2023/07/14 03:07:45;;;;;;;24.83;5.53;;;;;;;;;;6058802;23;20110;-57
2023/07/14 03:10:20;;;;;;;19.75;5.43;;;;;;;;;;6058297;23;20035;-57
2023/07/14 03:12:47;;;;;;;22.70;5.63;;;;;;;;;;6058184;23;20031;-57
2023/07/14 03:15:14;;;;;;;25.52;5.63;;;;;;;;;;6059945;23;20034;-57
2023/07/14 03:17:48;;;;;;;26.15;5.88;;;;;;;;;;6059860;23;20086;-58
2023/07/14 03:20:16;;;;;;;23.05;5.68;;;;;;;;;;6058101;23;20376;-58
2023/07/14 03:22:57;;;;;;;19.38;5.63;;;;;;;;;;6059695;23;20022;-58
2023/07/14 03:25:24;;;;;;;25.88;5.80;;;;;;;;;;6059915;23;20046;-58
2023/07/14 03:27:58;;;;;;;24.70;6.60;;;;;;;;;;6058808;23;20430;-58
2023/07/14 03:30:26;;;;;;;28.35;5.63;;;;;;;;;;6057965;23;20035;-58
2023/07/14 03:32:53;;;;;;;14.90;4.88;;;;;;;;;;6059365;23;20023;-62
2023/07/14 03:35:27;;;;;;;24.00;4.70;;;;;;;;;;6059143;23;20023;-63
2023/07/14 03:37:54;;;;;;;24.90;5.97;;;;;;;;;;6060566;23;20022;-62
2023/07/14 03:40:28;;;;;;;28.30;4.93;;;;;;;;;;6059078;23;20082;-62
2023/07/14 03:42:56;;;;;;;23.67;5.50;;;;;;;;;;6058578;23;20057;-62
2023/07/14 03:45:23;;;;;;;22.10;4.82;;;;;;;;;;6058796;23;20086;-62
2023/07/14 03:47:57;;;;;;;23.02;5.18;;;;;;;;;;6058813;23;20027;-57
2023/07/14 03:50:25;;;;;;;17.77;4.18;;;;;;;;;;6058528;23;20026;-58
2023/07/14 03:52:59;;;;;;;22.73;5.63;;;;;;;;;;6057815;23;20479;-56
2023/07/14 03:55:26;;;;;;;22.00;5.45;;;;;;;;;;6058914;23;20023;-58
2023/07/14 03:57:55;;;;;;;13.50;5.10;;;;;;;;;;6058872;23;20030;-57
2023/07/14 04:00:31;;;;;;;19.77;5.28;;;;;;;;;;6054650;23;20598;-61
2023/07/14 04:02:58;;;;;;;;;;;;;;;;;;6058749;23;20019;-60
2023/07/14 04:05:32;;;;;;;15.18;4.65;;;;;;;;;;6057411;23;20389;-61
2023/07/14 04:08:00;;;;;;;;;;;;;;;;;;6060378;23;20040;-62
2023/07/14 04:10:33;;;;;;;12.80;3.90;;;;;;;;;;6057791;23;19925;-61
2023/07/14 04:13:00;;;;;;;17.23;4.40;;;;;;;;;;6057829;23;20307;-61
2023/07/14 04:15:33;;;;;;;14.70;3.90;;;;;;;;;;6057340;23;20031;-57
2023/07/14 04:18:07;;;;;;;14.02;4.00;;;;;;;;;;6053799;23;20027;-52
2023/07/14 04:20:41;;;;;;;16.92;3.50;;;;;;;;;;6057091;23;20062;-50
2023/07/14 04:23:17;;;;;;;18.10;3.60;;;;;;;;;;6059133;23;20434;-50
2023/07/14 04:25:45;;;;;;;11.25;3.25;;;;;;;;;;6058593;23;20031;-63
2023/07/14 04:28:12;;;;;;;9.82;3.40;;;;;;;;;;6053694;23;20082;-62
2023/07/14 04:30:53;;;;;;;13.85;3.30;;;;;;;;;;6057136;23;20098;-58
2023/07/14 04:33:21;;;;;;;17.92;3.55;;;;;;;;;;6057907;23;20386;-58
2023/07/14 04:35:56;;;;;;;13.98;3.28;;;;;;;;;;6056669;23;20082;-58
2023/07/14 04:38:24;;;;;;;14.70;3.70;;;;;;;;;;6058783;23;20030;-58
2023/07/14 04:40:51;;;;;;;14.68;3.60;;;;;;;;;;6057823;23;20033;-58
2023/07/14 04:43:25;;;;;;;13.65;3.50;;;;;;;;;;6056977;23;20022;-58
2023/07/14 04:45:52;;;;;;;11.73;3.38;;;;;;;;;;6058133;23;20033;-58
2023/07/14 04:48:26;;;;;;;15.65;3.72;;;;;;;;;;6059023;23;20113;-58
2023/07/14 04:50:53;;;;;;;13.35;3.75;;;;;;;;;;6058043;23;20023;-58
2023/07/14 04:53:21;;;;;;;17.27;3.50;;;;;;;;;;6058156;23;20026;-58
2023/07/14 04:55:54;;;;;;;10.60;3.10;;;;;;;;;;6058621;23;20027;-58
2023/07/14 04:58:21;;;;;;;14.25;3.28;;;;;;;;;;6056662;23;20027;-61
2023/07/14 05:00:55;;;;;;;13.50;3.55;;;;;;;;;;6057246;23;20026;-62
2023/07/14 05:03:23;;;;;;;15.25;3.33;;;;;;;;;;6058626;23;20118;-61
2023/07/14 05:05:50;;;;;;;12.00;3.58;;;;;;;;;;6058010;23;20027;-61
2023/07/14 05:08:24;;;;;;;10.57;3.42;;;;;;;;;;6057239;23;20491;-61
2023/07/14 05:10:51;;;;;;;;;;;;;;;;;;6058279;23;20031;-62
2023/07/14 05:13:25;;;;;;;15.07;3.60;;;;;;;;;;6059854;23;20333;-57
2023/07/14 05:15:52;;;;;;;17.55;3.70;;;;;;;;;;6056418;23;20078;-57
2023/07/14 05:18:20;;;;;;;14.02;3.40;;;;;;;;;;6058647;23;20023;-57
2023/07/14 05:21:07;;;;;;;11.48;3.03;;;;;;;;;;6057738;23;20418;-57
2023/07/14 05:23:41;;;;;;;15.35;3.45;;;;;;;;;;6057459;23;20026;-59
2023/07/14 05:26:15;;;;;;;13.57;3.97;;;;;;;;;;6057594;23;20078;-59
2023/07/14 05:28:42;;;;;;;18.05;3.88;;;;;;;;;;6057397;23;20027;-58
2023/07/14 05:31:12;;;;;;;9.73;3.42;;;;;;;;;;6056811;23;20330;-58
2023/07/14 05:33:46;;;;;;;14.93;3.67;;;;;;;;;;6057748;23;20026;-58
2023/07/14 05:36:13;;;;;;;;;;;;;;;;;;6057440;23;20136;-58
2023/07/14 05:38:47;;;;;;;15.73;3.17;;;;;;;;;;6057548;23;19917;-58
2023/07/14 05:41:14;;;;;;;14.80;3.30;;;;;;;;;;6058067;23;20027;-59
2023/07/14 05:43:41;;;;;;;12.90;3.05;;;;;;;;;;6056684;23;20078;-58
2023/07/14 05:46:15;;;;;;;18.02;3.10;;;;;;;;;;6058047;23;20027;-59
2023/07/14 05:48:42;;;;;;;13.05;3.47;;;;;;;;;;6052193;23;20267;-58
2023/07/14 05:51:16;;;;;;;10.05;2.78;;;;;;;;;;6055067;23;20046;-56
2023/07/14 05:53:43;;;;;;;13.02;3.05;;;;;;;;;;6057071;23;20103;-64
2023/07/14 05:56:11;;;;;;;10.00;2.60;;;;;;;;;;6057782;23;20435;-58
2023/07/14 05:58:44;;;;;;;16.83;3.15;;;;;;;;;;6053991;23;20026;-58
2023/07/14 06:01:12;;;;;;;10.23;2.80;;;;;;;;;;6055636;23;20534;-58
2023/07/14 06:03:46;;;;;;;9.88;2.90;;;;;;;;;;6051976;23;20027;-58
2023/07/14 06:06:13;;;;;;;9.48;2.90;;;;;;;;;;6057607;23;20031;-58
2023/07/14 06:08:42;;;;;;;11.57;2.90;;;;;;;;;;6056696;23;20019;-58
2023/07/14 06:11:15;;;;;;;11.65;2.92;;;;;;;;;;6057021;23;20461;-63
2023/07/14 06:13:42;;;;;;;11.85;2.92;;;;;;;;;;6058081;23;20027;-63
2023/07/14 06:16:16;;;;;;;14.25;3.10;;;;;;;;;;6057557;23;20581;-63
2023/07/14 06:18:43;;;;;;;8.13;2.70;;;;;;;;;;6057391;23;20078;-63
2023/07/14 06:21:11;;;;;;;11.43;2.72;;;;;;;;;;6056452;23;20788;-62
2023/07/14 06:23:51;;;;;;;10.05;3.00;;;;;;;;;;6054797;23;20030;-64
2023/07/14 06:26:18;;;;;;;12.48;3.28;;;;;;;;;;6054995;23;20023;-63
2023/07/14 06:28:52;;;;;;;7.80;2.60;;;;;;;;;;6056324;23;20382;-64
2023/07/14 06:31:19;;;;;;;10.73;2.85;;;;;;;;;;6056508;23;20038;-64
2023/07/14 06:33:47;;;;;;;7.10;2.47;;;;;;;;;;6056731;23;20023;-64
2023/07/14 06:36:21;;;;;;;10.98;2.50;;;;;;;;;;6056459;23;20031;-64
2023/07/14 06:38:48;;;;;;;10.60;2.78;;;;;;;;;;6056936;23;20026;-58
2023/07/14 06:41:16;;;;;;;10.25;2.40;;;;;;;;;;6058211;23;20027;-58
2023/07/14 06:43:49;;;;;;;19.88;2.67;;;;;;;;;;6058928;23;20023;-59
2023/07/14 06:46:23;;;;;;;9.82;3.13;;;;;;;;;;6056990;23;20039;-58
2023/07/14 06:48:58;;;;;;;14.60;3.30;;;;;;;;;;6057979;23;20386;-62
2023/07/14 06:51:45;;;;;;;7.65;2.08;;;;;;;;;;6057093;23;20371;-58
2023/07/14 06:54:19;;;;;;;11.18;2.85;;;;;;;;;;6057555;23;20046;-58
2023/07/14 06:56:46;;;;;;;10.80;2.55;;;;;;;;;;6056780;23;20031;-59
2023/07/14 06:59:14;;;;;;;12.73;3.47;;;;;;;;;;6059296;23;20030;-58
2023/07/14 07:01:47;;;;;;;12.43;2.53;;;;;;;;;;6056558;23;20549;-57
2023/07/14 07:04:15;;;;;;;8.88;2.53;;;;;;;;;;6059045;23;20463;-58
2023/07/14 07:06:48;;;;;;;8.43;2.60;;;;;;;;;;6059643;23;20055;-58
2023/07/14 07:09:15;;;;;;;11.82;2.45;;;;;;;;;;6059491;23;20023;-58
2023/07/14 07:11:43;;;;;;;11.30;2.60;;;;;;;;;;6059414;23;20031;-59
2023/07/14 07:14:16;;;;;;;10.23;2.40;;;;;;;;;;6059302;23;20031;-57
2023/07/14 07:16:43;;;;;;;9.63;2.90;;;;;;;;;;6058367;23;20035;-58
2023/07/14 07:19:11;;;;;;;9.00;3.15;;;;;;;;;;6056649;23;20463;-62
2023/07/14 07:21:51;;;;;;;8.50;2.45;;;;;;;;;;6058864;23;20374;-58
2023/07/14 07:24:18;;;;;;;13.77;2.78;;;;;;;;;;6059778;23;20371;-58
2023/07/14 07:26:52;;;;;;;6.97;2.25;;;;;;;;;;6061091;23;20023;-58
2023/07/14 07:29:19;;;;;;;7.85;2.17;;;;;;;;;;6059004;23;20023;-58
2023/07/14 07:31:47;;;;;;;9.23;2.30;;;;;;;;;;6059972;23;20415;-58
2023/07/14 07:34:21;;;;;;;7.80;2.70;;;;;;;;;;6058989;23;20023;-59
2023/07/14 07:36:48;;;;;;;10.40;2.50;;;;;;;;;;6059392;23;20091;-62
2023/07/14 07:39:22;;;;;;;9.82;2.70;;;;;;;;;;6059485;23;20486;-62
2023/07/14 07:41:49;;;;;;;8.30;2.80;;;;;;;;;;6058531;23;20090;-64
2023/07/14 07:44:17;;;;;;;5.18;2.22;;;;;;;;;;6060686;23;20446;-61
2023/07/14 07:46:51;;;;;;;11.85;3.10;;;;;;;;;;6059409;23;20367;-58
2023/07/14 07:49:18;;;;;;;10.20;2.50;;;;;;;;;;6059162;23;20105;-58
2023/07/14 07:51:52;;;;;;;9.85;2.20;;;;;;;;;;6058383;23;20130;-58
2023/07/14 07:54:21;;;;;;;10.13;2.45;;;;;;;;;;6060629;23;20023;-59
2023/07/14 07:56:48;;;;;;;12.98;2.80;;;;;;;;;;6057653;23;20034;-58
2023/07/14 07:59:21;;;;;;;5.20;1.85;;;;;;;;;;6059766;23;20376;-58
2023/07/14 08:01:49;;;;;;;9.52;2.20;;;;;;;;;;6059366;23;20030;-58
2023/07/14 08:04:18;;;;;;;9.68;2.22;;;;;;;;;;6058597;23;20023;-51
2023/07/14 08:06:51;;;;;;;10.73;2.28;;;;;;;;;;6053944;23;20055;-51
2023/07/14 08:09:19;;;;;;;10.00;2.28;;;;;;;;;;6058332;23;20567;-52
2023/07/14 08:11:56;;;;;;;10.52;2.40;;;;;;;;;;6059967;23;20027;-48
2023/07/14 08:14:23;;;;;;;7.07;2.30;;;;;;;;;;6057730;23;20106;-59
2023/07/14 08:16:51;;;;;;;10.00;2.30;;;;;;;;;;6059094;23;20035;-59
2023/07/14 08:19:25;;;;;;;8.98;2.30;;;;;;;;;;6060452;23;20034;-58
2023/07/14 08:21:59;;;;;;;6.00;1.88;;;;;;;;;;6059261;23;20031;-59
2023/07/14 08:24:40;;;;;;;11.02;2.60;;;;;;;;;;6054665;23;20089;-59
2023/07/14 08:27:07;;;;;;;10.40;2.25;;;;;;;;;;6059494;23;20022;-58
2023/07/14 08:29:42;;;;;;;10.13;2.78;;;;;;;;;;6059510;23;20030;-58
2023/07/14 08:32:09;;;;;;;8.65;2.10;;;;;;;;;;6058361;23;20027;-58
2023/07/14 08:34:43;;;;;;;6.40;1.67;;;;;;;;;;6058101;23;20435;-59
2023/07/14 08:37:11;;;;;;;3.13;1.65;;;;;;;;;;6058882;23;20097;-58
2023/07/14 08:39:38;;;;;;;5.90;1.70;;;;;;;;;;6057283;23;20027;-58
2023/07/14 08:42:39;;;;;;;3.80;1.75;;;;;;;;;;6059566;23;20106;-58
2023/07/14 08:45:36;;;;;;;2.55;1.40;;;;;;;;;;6055114;23;20065;-58
2023/07/14 08:48:21;;;;;;;4.25;1.35;;;;;;;;;;6059071;23;20220;-57
2023/07/14 08:50:50;;;;;;;5.65;1.45;;;;;;;;;;6058323;23;20030;-58
2023/07/14 08:53:27;;;;;;;6.13;1.73;;;;;;;;;;6059482;23;20059;-58
2023/07/14 08:55:59;;;;;;;2.92;1.63;;;;;;;;;;6057828;23;20405;-58
2023/07/14 08:58:39;;;;;;;4.93;1.58;;;;;;;;;;6058553;23;20026;-58
2023/07/14 09:01:23;;;;;;;3.67;1.45;;;;;;;;;;6057758;23;20031;-58
2023/07/14 09:03:59;;;;;;;4.57;1.30;;;;;;;;;;6058605;23;20037;-58
2023/07/14 09:06:35;;;;;;;6.60;1.45;;;;;;;;;;6058551;23;20082;-58
2023/07/14 09:09:03;;;;;;;5.93;1.52;;;;;;;;;;6057865;23;20498;-58
2023/07/14 09:11:30;;;;;;;6.63;1.80;;;;;;;;;;6056430;23;20224;-54
2023/07/14 09:14:18;;;;;;;4.65;1.55;;;;;;;;;;6056178;23;20027;-59
2023/07/14 09:16:55;;;;;;;6.53;1.83;;;;;;;;;;6057412;23;20031;-59
2023/07/14 09:19:43;;;;;;;7.25;1.98;;;;;;;;;;6059769;23;20027;-59
2023/07/14 09:22:30;;;;;;;6.20;1.80;;;;;;;;;;6058894;23;20071;-58
2023/07/14 09:25:05;;;;;;;6.60;1.58;;;;;;;;;;6059128;23;20027;-58
2023/07/14 09:27:33;;;;;;;9.07;1.90;;;;;;;;;;6059104;23;20515;-58
2023/07/14 09:30:00;;;;;;;4.85;1.80;;;;;;;;;;6059654;23;20070;-58
2023/07/14 09:32:37;;;;;;;5.68;1.48;;;;;;;;;;6058156;23;20498;-58
2023/07/14 09:35:09;;;;;;;6.40;2.00;;;;;;;;;;6059209;23;20086;-58
2023/07/14 09:37:47;;;;;;;7.63;2.05;;;;;;;;;;6055939;23;20427;-57
2023/07/14 09:40:22;;;;;;;7.45;1.60;;;;;;;;;;6059547;23;20027;-53
2023/07/14 09:42:57;;;;;;;3.03;1.50;;;;;;;;;;6058688;23;20026;-58
2023/07/14 09:45:26;;;;;;;2.22;1.23;;;;;;;;;;6055469;23;20027;-58
2023/07/14 09:48:08;;;;;;;4.38;1.73;;;;;;;;;;6058374;23;20026;-58
2023/07/14 09:50:37;;;;;;;5.25;1.65;;;;;;;;;;6057806;23;20478;-58
2023/07/14 09:53:11;;;;;;;5.53;1.60;;;;;;;;;;6059536;23;20082;-58
2023/07/14 09:55:48;;;;;;;4.35;1.65;;;;;;;;;;6058015;23;20031;-58
2023/07/14 09:58:21;;;;;;;5.03;1.80;;;;;;;;;;6060567;23;20499;-58
2023/07/14 10:00:56;;;;;;;5.22;1.98;;;;;;;;;;6057800;23;20027;-58
2023/07/14 10:03:30;;;;;;;2.33;1.50;;;;;;;;;;6057609;23;20034;-58
2023/07/14 10:06:22;;;;;;;3.03;1.60;;;;;;;;;;6059163;23;20082;-57
2023/07/14 10:08:49;;;;;;;;;;;;;;;;;;6060121;23;20584;-58
2023/07/14 10:11:39;;;;;;;5.55;1.90;;;;;;;;;;6058893;23;20373;-51
2023/07/14 10:14:28;;;;;;;9.07;1.85;;;;;;;;;;6060174;23;20382;-51
2023/07/14 10:17:01;;;;;;;7.10;1.65;;;;;;;;;;6059659;23;20027;-52
2023/07/14 10:19:28;;;;;;;;;;;;;;;;;;6060036;23;20018;-51
2023/07/14 10:22:05;;;;;;;6.07;1.55;;;;;;;;;;6057008;23;19924;-53
2023/07/14 10:24:46;;;;;;;14.25;1.92;;;;;;;;;;6059232;23;20027;-50
2023/07/14 10:27:21;;;;;;;3.03;1.60;;;;;;;;;;6059081;23;20019;-64
2023/07/14 10:30:16;;;;;;;2.85;1.38;;;;;;;;;;6058467;23;20029;-64
2023/07/14 10:32:53;;;;;;;6.35;2.20;;;;;;;;;;6058768;23;20498;-63
2023/07/14 10:35:28;;;;;;;7.28;1.90;;;;;;;;;;6058347;23;20499;-63
2023/07/14 10:38:04;;;;;;;4.85;1.70;;;;;;;;;;6058643;23;20023;-58
2023/07/14 10:40:39;;;;;;;6.45;1.60;;;;;;;;;;6059778;23;20023;-57
2023/07/14 10:43:16;;;;;;;7.07;1.73;;;;;;;;;;6061721;23;20038;-57
2023/07/14 10:45:49;;;;;;;3.20;1.73;;;;;;;;;;6059324;23;20432;-57
2023/07/14 10:48:35;;;;;;;3.75;1.50;;;;;;;;;;6061541;23;20023;-57
2023/07/14 10:51:20;;;;;;;3.38;1.50;;;;;;;;;;6060541;23;20086;-57
2023/07/14 10:53:57;;;;;;;6.38;1.80;;;;;;;;;;6061322;23;20027;-59
2023/07/14 10:56:34;;;;;;;3.33;1.30;;;;;;;;;;6059737;23;20171;-60
2023/07/14 10:59:22;;;;;;;5.88;1.77;;;;;;;;;;6060454;23;20558;-60
2023/07/14 11:02:12;;;;;;;4.72;1.48;;;;;;;;;;6059992;23;20030;-60
2023/07/14 11:04:50;;;;;;;9.07;1.52;;;;;;;;;;6051125;23;20023;-58
2023/07/14 11:07:21;;;;;;;6.55;1.67;;;;;;;;;;6058094;23;20069;-60
2023/07/14 11:09:54;;;;;;;3.67;1.17;;;;;;;;;;6058962;23;20457;-60
2023/07/14 11:12:34;;;;;;;7.18;1.70;;;;;;;;;;6058904;23;20030;-60
2023/07/14 11:15:15;;;;;;;6.82;1.70;;;;;;;;;;6058267;23;20455;-60
2023/07/14 11:17:49;;;;;;;5.15;1.60;;;;;;;;;;6059560;23;20089;-60
2023/07/14 11:20:30;;;;;;;4.28;1.60;;;;;;;;;;6059723;23;20030;-60
2023/07/14 11:23:23;;;;;;;3.25;1.27;;;;;;;;;;6060197;23;20034;-58
2023/07/14 11:26:06;;;;;;;2.58;1.40;;;;;;;;;;6058497;23;20034;-58
2023/07/14 11:28:44;;;;;;;2.60;1.45;;;;;;;;;;6059330;23;20031;-58
2023/07/14 11:31:24;;;;;;;3.13;1.20;;;;;;;;;;6059221;23;20486;-58
2023/07/14 11:33:57;;;;;;;4.45;1.35;;;;;;;;;;6058906;23;20066;-64
2023/07/14 11:36:47;;;;;;;3.17;1.30;;;;;;;;;;6059326;23;20082;-65
2023/07/14 11:39:18;;;;;;;3.50;1.33;;;;;;;;;;6058464;23;20030;-64
2023/07/14 11:41:52;;;;;;;4.53;1.40;;;;;;;;;;6060068;23;20031;-64
2023/07/14 11:44:21;;;;;;;2.88;1.40;;;;;;;;;;6060413;23;20034;-64
2023/07/14 11:46:49;;;;;;;2.92;1.40;;;;;;;;;;6058159;23;20030;-64
2023/07/14 11:49:25;;;;;;;7.50;1.50;;;;;;;;;;6060811;23;20086;-64
2023/07/14 11:51:57;;;;;;;1.85;1.20;;;;;;;;;;6057914;23;20023;-57
2023/07/14 11:54:54;;;;;;;6.70;1.80;;;;;;;;;;6058949;23;20498;-58
2023/07/14 11:57:22;;;;;;;3.58;1.50;;;;;;;;;;6059310;23;20023;-58
2023/07/14 12:00:19;;;;;;;5.35;1.58;;;;;;;;;;6058058;23;20026;-57
2023/07/14 12:02:48;;;;;;;2.38;1.10;;;;;;;;;;6045951;23;20022;-58
2023/07/14 12:05:24;;;;;;;3.10;1.40;;;;;;;;;;6058983;23;20027;-52
2023/07/14 12:08:15;;;;;;;4.63;1.50;;;;;;;;;;6053822;23;20027;-50
2023/07/14 12:10:49;;;;;;;2.10;1.05;;;;;;;;;;6057312;23;20033;-51
2023/07/14 12:13:17;;;;;;;2.92;1.33;;;;;;;;;;6058446;23;20053;-50
2023/07/14 12:15:46;;;;;;;4.38;1.50;;;;;;;;;;6058599;23;20023;-51
2023/07/14 12:18:28;;;;;;;3.45;1.40;;;;;;;;;;6059408;23;20035;-48
2023/07/14 12:21:14;;;;;;;3.97;1.52;;;;;;;;;;6059087;23;20026;-63
2023/07/14 12:23:56;;;;;;;5.65;1.48;;;;;;;;;;6053053;23;20098;-63
2023/07/14 12:26:45;;;;;;;4.78;1.30;;;;;;;;;;6054636;23;20375;-63
2023/07/14 12:29:21;;;;;;;3.78;1.58;;;;;;;;;;6058418;23;20026;-63
2023/07/14 12:31:54;;;;;;;3.13;1.60;;;;;;;;;;6055924;23;20026;-58
2023/07/14 12:34:31;;;;;;;8.15;1.60;;;;;;;;;;6058445;23;20027;-57
2023/07/14 12:37:00;;;;;;;1.65;1.08;;;;;;;;;;6056422;23;20042;-57
2023/07/14 12:39:28;;;;;;;3.08;1.45;;;;;;;;;;6059143;23;20035;-57
2023/07/14 12:42:02;;;;;;;5.55;1.98;;;;;;;;;;6058380;23;20078;-58
2023/07/14 12:44:33;;;;;;;3.08;1.60;;;;;;;;;;6059219;23;20360;-58
2023/07/14 12:47:01;;;;;;;2.75;1.25;;;;;;;;;;6058598;23;20026;-57
2023/07/14 12:49:40;;;;;;;3.60;1.55;;;;;;;;;;6060722;23;20028;-61
2023/07/14 12:52:12;;;;;;;2.92;1.27;;;;;;;;;;6059137;23;20055;-61
2023/07/14 12:54:45;;;;;;;;;;;;;;;;;;6059998;23;20078;-61
2023/07/14 12:57:14;;;;;;;8.52;1.65;;;;;;;;;;6053914;23;19922;-61
2023/07/14 12:59:41;;;;;;;7.72;1.50;;;;;;;;;;6056331;23;20553;-58
2023/07/14 13:02:16;;;;;;;4.53;1.60;;;;;;;;;;6057280;23;20053;-61
2023/07/14 13:04:43;;;;;;;3.17;1.38;;;;;;;;;;6056643;23;20023;-61
2023/07/14 13:07:23;;;;;;;3.90;1.50;;;;;;;;;;6057520;23;20034;-60
2023/07/14 13:10:00;;;;;;;5.60;1.50;;;;;;;;;;6058119;23;20027;-61
2023/07/14 13:12:36;;;;;;;24.17;2.00;;;;;;;;;;6056889;23;20106;-61
2023/07/14 13:15:03;;;;;;;4.05;1.55;;;;;;;;;;6058348;23;20034;-61
2023/07/14 13:17:30;;;;;;;5.53;1.50;;;;;;;;;;6055642;23;20415;-58
2023/07/14 13:20:08;;;;;;;3.58;1.70;;;;;;;;;;6058113;23;20027;-58
2023/07/14 13:22:37;;;;;;;2.78;1.45;;;;;;;;;;6057406;23;20038;-57
2023/07/14 13:25:19;;;;;;;4.97;1.50;;;;;;;;;;6056098;23;20430;-59
2023/07/14 13:27:48;;;;;;;4.00;1.42;;;;;;;;;;6057439;23;20031;-54
2023/07/14 13:30:23;;;;;;;6.15;1.58;;;;;;;;;;6057481;23;20453;-58
2023/07/14 13:32:51;;;;;;;4.90;1.52;;;;;;;;;;6056201;23;20571;-58
2023/07/14 13:35:25;;;;;;;4.18;1.60;;;;;;;;;;6056888;23;20533;-58
2023/07/14 13:38:02;;;;;;;3.85;1.45;;;;;;;;;;6058371;23;20431;-58
2023/07/14 13:40:34;;;;;;;6.15;1.80;;;;;;;;;;6058161;23;20019;-58
2023/07/14 13:43:16;;;;;;;4.90;1.83;;;;;;;;;;6055918;23;20558;-57
2023/07/14 13:45:44;;;;;;;6.25;1.70;;;;;;;;;;6057143;23;20522;-51
2023/07/14 13:48:22;;;;;;;4.70;1.52;;;;;;;;;;6057667;23;20565;-53
2023/07/14 13:50:49;;;;;;;3.22;1.63;;;;;;;;;;6058036;23;20045;-52
2023/07/14 13:53:16;;;;;;;4.20;1.30;;;;;;;;;;6059125;23;20456;-52
2023/07/14 13:55:50;;;;;;;5.32;1.73;;;;;;;;;;6056847;23;20323;-50
2023/07/14 13:58:17;;;;;;;4.68;1.00;;;;;;;;;;6058760;23;20026;-56
2023/07/14 14:00:53;;;;;;;4.65;1.30;;;;;;;;;;6056931;23;20030;-57
2023/07/14 14:03:24;;;;;;;3.50;1.33;;;;;;;;;;6058254;23;20106;-58
2023/07/14 14:05:58;;;;;;;4.80;1.48;;;;;;;;;;6057170;23;20056;-57
2023/07/14 14:08:26;;;;;;;4.50;1.25;;;;;;;;;;6059273;23;20090;-57
2023/07/14 14:10:53;;;;;;;3.55;1.20;;;;;;;;;;6058312;23;20030;-58
2023/07/14 14:13:26;;;;;;;6.32;1.60;;;;;;;;;;6060426;23;20364;-58
2023/07/14 14:15:54;;;;;;;5.45;1.40;;;;;;;;;;6060020;23;20023;-58
2023/07/14 14:18:22;;;;;;;3.35;1.50;;;;;;;;;;6060809;23;20550;-57
2023/07/14 14:20:58;;;;;;;5.70;1.42;;;;;;;;;;6060071;23;20022;-58
2023/07/14 14:23:32;;;;;;;4.45;1.23;;;;;;;;;;6060162;23;20026;-57
2023/07/14 14:26:06;;;;;;;3.67;1.35;;;;;;;;;;6060253;23;20367;-52
2023/07/14 14:28:33;;;;;;;4.15;1.40;;;;;;;;;;6057200;23;20505;-63
2023/07/14 14:31:09;;;;;;;3.17;1.25;;;;;;;;;;6057941;23;20034;-62
2023/07/14 14:33:37;;;;;;;3.08;1.40;;;;;;;;;;6060716;23;20146;-62
2023/07/14 14:36:04;;;;;;;7.65;1.50;;;;;;;;;;6060293;23;20034;-61
2023/07/14 14:38:40;;;;;;;4.60;1.70;;;;;;;;;;6058211;23;20030;-61
2023/07/14 14:41:17;;;;;;;4.15;1.52;;;;;;;;;;6059121;23;20022;-61
2023/07/14 14:43:58;;;;;;;4.70;1.60;;;;;;;;;;6059997;23;20027;-57
2023/07/14 14:46:25;;;;;;;1.88;1.27;;;;;;;;;;6058859;23;20031;-58
2023/07/14 14:49:00;;;;;;;4.38;1.50;;;;;;;;;;6060999;23;20102;-57
2023/07/14 14:51:27;;;;;;;3.55;1.55;;;;;;;;;;6058939;23;20059;-57
2023/07/14 14:53:54;;;;;;;2.78;1.48;;;;;;;;;;6060294;23;20094;-55
2023/07/14 14:56:29;;;;;;;4.13;1.23;;;;;;;;;;6059119;23;20026;-62
2023/07/14 14:59:00;;;;;;;2.83;1.40;;;;;;;;;;6059215;23;20490;-58
2023/07/14 15:01:45;;;;;;;2.25;1.02;;;;;;;;;;6059927;23;20478;-58
2023/07/14 15:04:23;;;;;;;3.53;1.60;;;;;;;;;;6060566;23;20359;-58
2023/07/14 15:06:57;;;;;;;4.47;1.30;;;;;;;;;;6058897;23;20083;-58
2023/07/14 15:09:25;;;;;;;3.88;1.40;;;;;;;;;;6060733;23;20082;-58
2023/07/14 15:11:58;;;;;;;3.85;1.40;;;;;;;;;;6057220;23;20023;-58
2023/07/14 15:14:30;;;;;;;4.07;1.10;;;;;;;;;;6060234;23;20030;-58